M I D A S
Marine Information and Data Acquisition System
Tripno 948 of the Zeeleeuw from 2005-07-08 06:37:41 to 2005-07-08 14:21:59
Back to CruiseResearch ActivitiesStationsMapUnderway DataData graphs

EquipmentUnitsComments
TimeDGPSUTC
LatitudeDGPSDM.mWGS84
LongitudeDGPSDM.mWGS84
SpeedMeteo Stationm/sRelative wind speed
DirectionMeteo StationdegRelative wind direction
TemperatureMeteo Stationdeg CelciusAir temperature
PressureMeteo StationPaAtmospheric pressure
HumidityMeteo Station%Relative humidity
Missing or incorrect values are displayed as -999
Metereological data collected by the RV Zeeleeuw from 2005-07-08 06:32:46 to 2005-07-08 14:33:27
                                                                                    Next 1000 lines
Time Latitude Longitude Speed Direction Temperature Pressure Humidity
2005-07-08 06:32:57 51°13.681 2°55.905 4.6 230 15.6 101500 89
2005-07-08 06:33:02 51°13.681 2°55.905 3.5 232 15.6 101500 89
2005-07-08 06:33:07 51°13.681 2°55.905 3 233 15.6 101500 89
2005-07-08 06:33:11 51°13.681 2°55.905 3.7 231 15.6 101500 89
2005-07-08 06:33:15 51°13.681 2°55.905 3.8 226 15.6 101500 89
2005-07-08 06:33:22 51°13.681 2°55.905 4.8 231 15.6 101500 89
2005-07-08 06:33:27 51°13.681 2°55.905 4.5 229 15.6 101500 89
2005-07-08 06:33:32 51°13.681 2°55.905 4.3 230 15.6 101500 89
2005-07-08 06:33:37 51°13.682 2°55.905 4.2 233 15.6 101500 89
2005-07-08 06:33:42 51°13.681 2°55.905 3.7 220 15.6 101500 89
2005-07-08 06:33:46 51°13.681 2°55.905 3.2 227 15.7 101500 89
2005-07-08 06:33:51 51°13.681 2°55.905 3.5 245 15.7 101500 89
2005-07-08 06:33:56 51°13.68 2°55.905 2.5 225 15.6 101500 88
2005-07-08 06:34:01 51°13.68 2°55.905 3.5 217 15.6 101500 88
2005-07-08 06:34:06 51°13.68 2°55.905 3.6 241 15.6 101500 88
2005-07-08 06:34:12 51°13.68 2°55.905 3.6 230 15.6 101500 88
2005-07-08 06:34:16 51°13.68 2°55.905 4.2 219 15.6 101500 88
2005-07-08 06:34:21 51°13.68 2°55.905 2.7 233 15.6 101500 88
2005-07-08 06:34:26 51°13.68 2°55.905 3.3 211 15.6 101500 88
2005-07-08 06:34:31 51°13.681 2°55.905 3.4 240 15.6 101500 88
2005-07-08 06:34:36 51°13.681 2°55.905 2.6 246 15.6 101500 88
2005-07-08 06:34:42 51°13.681 2°55.905 2.1 219 15.6 101500 88
2005-07-08 06:34:46 51°13.681 2°55.904 2.2 226 15.6 101500 88
2005-07-08 06:34:52 51°13.681 2°55.904 3.5 210 15.6 101500 88
2005-07-08 06:34:56 51°13.681 2°55.904 3.5 240 15.6 101500 88
2005-07-08 06:35:02 51°13.682 2°55.904 3.5 218 15.6 101500 88
2005-07-08 06:35:06 51°13.682 2°55.904 4.2 239 15.6 101500 88
2005-07-08 06:35:11 51°13.682 2°55.904 4.1 227 15.6 101500 88
2005-07-08 06:35:16 51°13.682 2°55.904 3.1 239 15.7 101500 88
2005-07-08 06:35:22 51°13.682 2°55.904 4.3 233 15.7 101500 88
2005-07-08 06:35:27 51°13.682 2°55.904 4.1 223 15.7 101500 88
2005-07-08 06:35:31 51°13.682 2°55.904 3 254 15.7 101500 88
2005-07-08 06:35:37 51°13.682 2°55.904 3.8 232 15.6 101500 88
2005-07-08 06:35:42 51°13.682 2°55.904 2.4 253 15.6 101500 88
2005-07-08 06:35:47 51°13.682 2°55.904 4.1 239 15.7 101500 88
2005-07-08 06:35:51 51°13.682 2°55.904 6.1 236 15.7 101500 88
2005-07-08 06:35:56 51°13.682 2°55.904 4.3 223 15.6 101500 88
2005-07-08 06:36:02 51°13.682 2°55.904 3.7 249 15.6 101500 88
2005-07-08 06:36:07 51°13.682 2°55.904 3.6 218 15.7 101500 88
2005-07-08 06:36:11 51°13.682 2°55.904 4.4 231 15.7 101500 88
2005-07-08 06:36:16 51°13.682 2°55.904 3.5 256 15.6 101500 88
2005-07-08 06:36:22 51°13.682 2°55.904 3.5 212 15.6 101500 88
2005-07-08 06:36:26 51°13.682 2°55.904 4.6 243 15.6 101500 88
2005-07-08 06:36:31 51°13.682 2°55.904 5.4 228 15.6 101500 88
2005-07-08 06:36:36 51°13.682 2°55.904 5.1 241 15.6 101500 88
2005-07-08 06:36:42 51°13.683 2°55.904 3.9 227 15.6 101500 88
2005-07-08 06:36:47 51°13.683 2°55.904 3.3 220 15.7 101500 88
2005-07-08 06:36:52 51°13.682 2°55.904 3.3 229 15.7 101500 88
2005-07-08 06:36:57 51°13.682 2°55.904 3.7 230 15.6 101500 88
2005-07-08 06:37:02 51°13.682 2°55.904 3.2 227 15.6 101500 88
2005-07-08 06:37:06 51°13.683 2°55.904 4.5 197 15.7 101500 88
2005-07-08 06:37:11 51°13.683 2°55.904 3.7 241 15.7 101500 88
2005-07-08 06:37:17 51°13.682 2°55.904 3.8 242 15.7 101500 88
2005-07-08 06:37:22 51°13.682 2°55.904 3.5 216 15.7 101500 88
2005-07-08 06:37:26 51°13.682 2°55.904 2.2 209 15.7 101500 88
2005-07-08 06:37:31 51°13.682 2°55.904 3.6 214 15.7 101500 88
2005-07-08 06:37:37 51°13.682 2°55.904 4.1 247 15.7 101500 88
2005-07-08 06:37:42 51°13.682 2°55.905 4.7 242 15.7 101500 88
2005-07-08 06:37:46 51°13.682 2°55.905 5 237 15.7 101500 88
2005-07-08 06:37:51 51°13.682 2°55.904 4.4 244 15.7 101500 88
2005-07-08 06:37:55 51°13.682 2°55.905 3.1 247 15.7 101500 88
2005-07-08 06:38:02 51°13.682 2°55.905 2.5 249 15.7 101500 88
2005-07-08 06:38:07 51°13.682 2°55.904 2.1 248 15.7 101510 88
2005-07-08 06:38:11 51°13.682 2°55.904 2.3 215 15.7 101510 88
2005-07-08 06:38:17 51°13.682 2°55.905 4.6 233 15.7 101500 88
2005-07-08 06:38:21 51°13.681 2°55.905 5.7 226 15.7 101500 88
2005-07-08 06:38:26 51°13.681 2°55.904 4 229 15.7 101500 88
2005-07-08 06:38:31 51°13.682 2°55.904 4.9 245 15.7 101500 88
2005-07-08 06:38:36 51°13.682 2°55.904 5.5 244 15.7 101510 88
2005-07-08 06:38:42 51°13.682 2°55.901 4.3 243 15.7 101510 88
2005-07-08 06:38:46 51°13.683 2°55.899 3.5 255 15.7 101500 88
2005-07-08 06:38:51 51°13.684 2°55.896 5.7 242 15.7 101500 88
2005-07-08 06:38:57 51°13.685 2°55.891 6 245 15.7 101500 88
2005-07-08 06:39:02 51°13.687 2°55.887 5.5 236 15.7 101500 88
2005-07-08 06:39:07 51°13.689 2°55.881 3.5 247 15.7 101510 88
2005-07-08 06:39:12 51°13.69 2°55.875 4.6 241 15.7 101510 88
2005-07-08 06:39:17 51°13.692 2°55.868 6.6 247 15.7 101510 88
2005-07-08 06:39:22 51°13.694 2°55.862 5.7 240 15.7 101510 88
2005-07-08 06:39:27 51°13.696 2°55.854 5.3 247 15.7 101510 88
2005-07-08 06:39:32 51°13.698 2°55.846 5.2 247 15.7 101510 88
2005-07-08 06:39:37 51°13.7 2°55.837 5 242 15.7 101510 88
2005-07-08 06:39:42 51°13.702 2°55.829 5 225 15.7 101510 88
2005-07-08 06:39:47 51°13.705 2°55.818 5 241 15.7 101510 88
2005-07-08 06:39:52 51°13.707 2°55.808 6.4 229 15.7 101510 88
2005-07-08 06:39:57 51°13.71 2°55.798 7.3 238 15.7 101510 88
2005-07-08 06:40:02 51°13.712 2°55.788 6.7 240 15.7 101510 88
2005-07-08 06:40:07 51°13.714 2°55.777 8.1 241 15.7 101510 88
2005-07-08 06:40:12 51°13.715 2°55.767 7.3 243 15.7 101510 88
2005-07-08 06:40:16 51°13.716 2°55.758 6.8 233 15.7 101510 88
2005-07-08 06:40:22 51°13.718 2°55.748 3.3 264 15.7 101510 88
2005-07-08 06:40:27 51°13.719 2°55.74 6.4 244 15.6 101510 88
2005-07-08 06:40:31 51°13.72 2°55.734 4.9 257 15.6 101510 88
2005-07-08 06:40:36 51°13.721 2°55.731 8.1 269 15.6 101520 88
2005-07-08 06:40:42 51°13.722 2°55.73 8.3 289 15.6 101520 88
2005-07-08 06:40:46 51°13.723 2°55.73 7.6 287 15.6 101510 88
2005-07-08 06:40:51 51°13.725 2°55.732 6.7 297 15.6 101510 88
2005-07-08 06:40:56 51°13.727 2°55.732 6.2 311 15.6 101510 88
2005-07-08 06:41:02 51°13.728 2°55.732 4 300 15.6 101510 88
2005-07-08 06:41:06 51°13.728 2°55.731 5.7 307 15.6 101510 88
2005-07-08 06:41:11 51°13.728 2°55.729 6.8 307 15.6 101510 88
2005-07-08 06:41:15 51°13.728 2°55.727 5.7 285 15.6 101510 88
2005-07-08 06:41:22 51°13.726 2°55.723 4.7 308 15.6 101510 88
2005-07-08 06:41:26 51°13.725 2°55.721 5.7 316 15.6 101510 88
2005-07-08 06:41:32 51°13.722 2°55.716 5.7 308 15.6 101510 88
2005-07-08 06:41:36 51°13.721 2°55.714 4.9 331 15.6 101510 88
2005-07-08 06:41:42 51°13.719 2°55.712 5.3 327 15.6 101510 88
2005-07-08 06:41:47 51°13.72 2°55.711 5.2 337 15.6 101510 88
2005-07-08 06:41:51 51°13.72 2°55.711 5.1 335 15.6 101510 88
2005-07-08 06:41:55 51°13.721 2°55.71 4.7 351 15.6 101510 88
2005-07-08 06:42:02 51°13.722 2°55.71 4.8 359 15.6 101510 88
2005-07-08 06:42:06 51°13.724 2°55.709 7 3 15.6 101500 88
2005-07-08 06:42:11 51°13.726 2°55.708 6.2 356 15.6 101500 88
2005-07-08 06:42:16 51°13.729 2°55.706 5.3 17 15.6 101500 88
2005-07-08 06:42:22 51°13.733 2°55.704 6.1 11 15.6 101500 88
2005-07-08 06:42:26 51°13.735 2°55.702 7.4 5 15.6 101500 88
2005-07-08 06:42:31 51°13.74 2°55.698 6.9 9 15.6 101500 88
2005-07-08 06:42:35 51°13.744 2°55.696 8.9 12 15.6 101500 88
2005-07-08 06:42:42 51°13.75 2°55.691 8.6 8 15.6 101500 88
2005-07-08 06:42:46 51°13.755 2°55.688 8.7 7 15.6 101510 89
2005-07-08 06:42:52 51°13.763 2°55.683 8.7 10 15.6 101510 89
2005-07-08 06:42:56 51°13.769 2°55.679 8.3 1 15.6 101510 89
2005-07-08 06:43:02 51°13.777 2°55.674 8.5 7 15.6 101510 89
2005-07-08 06:43:06 51°13.783 2°55.67 8.9 19 15.6 101500 89
2005-07-08 06:43:11 51°13.792 2°55.664 8.6 7 15.6 101500 89
2005-07-08 06:43:15 51°13.799 2°55.659 9.6 5 15.6 101500 89
2005-07-08 06:43:22 51°13.81 2°55.652 11 10 15.6 101500 89
2005-07-08 06:43:26 51°13.819 2°55.647 10.4 15 15.6 101500 89
2005-07-08 06:43:32 51°13.829 2°55.642 10.9 13 15.6 101500 89
2005-07-08 06:43:36 51°13.838 2°55.637 10.9 7 15.7 101510 89
2005-07-08 06:43:42 51°13.848 2°55.631 10.7 20 15.7 101510 89
2005-07-08 06:43:46 51°13.856 2°55.627 11.2 14 15.6 101500 89
2005-07-08 06:43:51 51°13.868 2°55.621 9.4 17 15.6 101500 89
2005-07-08 06:43:55 51°13.876 2°55.617 10.9 15 15.6 101500 89
2005-07-08 06:44:01 51°13.889 2°55.61 11.1 11 15.6 101500 89
2005-07-08 06:44:06 51°13.9 2°55.604 10.6 9 15.6 101500 89
2005-07-08 06:44:11 51°13.91 2°55.598 9.6 13 15.6 101500 89
2005-07-08 06:44:17 51°13.922 2°55.591 10.7 15 15.6 101500 89
2005-07-08 06:44:22 51°13.933 2°55.584 10 4 15.6 101500 89
2005-07-08 06:44:26 51°13.941 2°55.579 10.5 8 15.6 101500 89
2005-07-08 06:44:31 51°13.953 2°55.572 10.3 10 15.6 101500 89
2005-07-08 06:44:37 51°13.965 2°55.564 11.7 7 15.7 101510 90
2005-07-08 06:44:42 51°13.976 2°55.557 11.2 5 15.7 101510 90
2005-07-08 06:44:47 51°13.986 2°55.549 10.6 4 15.6 101500 90
2005-07-08 06:44:51 51°13.996 2°55.542 10.1 11 15.6 101500 90
2005-07-08 06:44:57 51°14.008 2°55.532 11.7 7 15.6 101510 90
2005-07-08 06:45:02 51°14.019 2°55.523 11.5 7 15.6 101510 90
2005-07-08 06:45:06 51°14.028 2°55.515 11.2 11 15.6 101500 90
2005-07-08 06:45:11 51°14.04 2°55.505 10.8 11 15.6 101500 90
2005-07-08 06:45:17 51°14.052 2°55.494 11.1 14 15.6 101500 90
2005-07-08 06:45:21 51°14.063 2°55.485 10.9 15 15.6 101500 90
2005-07-08 06:45:26 51°14.074 2°55.475 11.8 9 15.6 101510 90
2005-07-08 06:45:31 51°14.087 2°55.463 11.2 9 15.6 101510 90
2005-07-08 06:45:36 51°14.098 2°55.453 11.6 3 15.6 101500 90
2005-07-08 06:45:42 51°14.113 2°55.439 10.3 8 15.6 101500 90
2005-07-08 06:45:46 51°14.123 2°55.43 11.3 10 15.6 101500 90
2005-07-08 06:45:51 51°14.137 2°55.417 13 12 15.6 101500 90
2005-07-08 06:45:57 51°14.152 2°55.403 11.8 9 15.6 101500 90
2005-07-08 06:46:01 51°14.163 2°55.391 13 16 15.6 101500 90
2005-07-08 06:46:06 51°14.176 2°55.376 13.1 18 15.6 101510 90
2005-07-08 06:46:11 51°14.189 2°55.362 11.4 17 15.6 101510 90
2005-07-08 06:46:16 51°14.201 2°55.346 12.3 13 15.6 101500 90
2005-07-08 06:46:22 51°14.215 2°55.329 10.3 18 15.6 101500 90
2005-07-08 06:46:26 51°14.225 2°55.316 11.1 19 15.6 101500 90
2005-07-08 06:46:31 51°14.237 2°55.297 11.3 23 15.6 101500 90
2005-07-08 06:46:36 51°14.249 2°55.279 10.9 24 15.6 101500 90
2005-07-08 06:46:41 51°14.26 2°55.261 8.7 18 15.6 101500 90
2005-07-08 06:46:46 51°14.27 2°55.244 10.1 12 15.6 101500 90
2005-07-08 06:46:51 51°14.282 2°55.224 11.4 26 15.6 101500 90
2005-07-08 06:46:56 51°14.292 2°55.206 10.5 23 15.6 101510 90
2005-07-08 06:47:02 51°14.304 2°55.183 11.2 22 15.6 101510 90
2005-07-08 06:47:06 51°14.313 2°55.167 11.5 22 15.6 101510 90
2005-07-08 06:47:11 51°14.324 2°55.146 11.9 24 15.6 101510 90
2005-07-08 06:47:16 51°14.333 2°55.128 12.3 25 15.6 101510 90
2005-07-08 06:47:22 51°14.345 2°55.102 11.6 27 15.6 101510 90
2005-07-08 06:47:26 51°14.353 2°55.083 11.6 28 15.6 101510 90
2005-07-08 06:47:31 51°14.363 2°55.063 11.3 28 15.6 101510 90
2005-07-08 06:47:35 51°14.371 2°55.046 12.3 27 15.6 101510 90
2005-07-08 06:47:41 51°14.383 2°55.021 12.4 29 15.6 101510 90
2005-07-08 06:47:46 51°14.392 2°55.001 12.8 30 15.6 101500 90
2005-07-08 06:47:51 51°14.403 2°54.977 12.2 29 15.6 101500 90
2005-07-08 06:47:56 51°14.412 2°54.955 12.2 32 15.6 101500 90
2005-07-08 06:48:02 51°14.423 2°54.93 11.6 28 15.6 101500 90
2005-07-08 06:48:06 51°14.431 2°54.911 11.9 24 15.6 101500 90
2005-07-08 06:48:11 51°14.442 2°54.885 11.7 24 15.6 101500 90
2005-07-08 06:48:16 51°14.454 2°54.861 11.4 17 15.6 101500 90
2005-07-08 06:48:22 51°14.466 2°54.837 13.2 17 15.6 101500 90
2005-07-08 06:48:26 51°14.475 2°54.818 12.4 15 15.6 101510 90
2005-07-08 06:48:31 51°14.487 2°54.792 13.4 16 15.6 101510 90
2005-07-08 06:48:37 51°14.501 2°54.765 13.2 13 15.6 101500 91
2005-07-08 06:48:42 51°14.513 2°54.744 12.8 12 15.6 101500 91
2005-07-08 06:48:46 51°14.524 2°54.728 12.4 9 15.6 101500 91
2005-07-08 06:48:51 51°14.539 2°54.708 14.6 8 15.6 101500 91
2005-07-08 06:48:57 51°14.555 2°54.688 14.2 10 15.6 101500 91
2005-07-08 06:49:01 51°14.568 2°54.673 13.2 10 15.6 101500 91
2005-07-08 06:49:06 51°14.583 2°54.656 13.9 12 15.6 101500 90
2005-07-08 06:49:11 51°14.598 2°54.639 13.1 13 15.6 101500 90
2005-07-08 06:49:15 51°14.609 2°54.626 13.1 14 15.6 101510 90
2005-07-08 06:49:21 51°14.627 2°54.605 13.6 12 15.6 101510 90
2005-07-08 06:49:26 51°14.64 2°54.589 13.1 12 15.6 101500 90
2005-07-08 06:49:31 51°14.656 2°54.57 12.5 15 15.6 101500 90
2005-07-08 06:49:37 51°14.672 2°54.55 13 13 15.6 101500 90
2005-07-08 06:49:42 51°14.686 2°54.534 13.1 11 15.6 101500 90
2005-07-08 06:49:46 51°14.7 2°54.519 13.7 12 15.6 101510 90
2005-07-08 06:49:52 51°14.716 2°54.501 13.6 9 15.6 101510 90
2005-07-08 06:49:56 51°14.729 2°54.488 11.6 9 15.6 101510 90
2005-07-08 06:50:01 51°14.744 2°54.471 12.6 13 15.6 101510 90
2005-07-08 06:50:06 51°14.76 2°54.456 14.2 13 15.6 101500 90
2005-07-08 06:50:11 51°14.775 2°54.44 14 15 15.6 101500 90
2005-07-08 06:50:15 51°14.787 2°54.428 13.1 14 15.6 101500 90
2005-07-08 06:50:22 51°14.807 2°54.407 13.2 15 15.6 101500 90
2005-07-08 06:50:26 51°14.819 2°54.395 13.2 9 15.6 101510 90
2005-07-08 06:50:31 51°14.834 2°54.379 12.4 12 15.6 101510 90
2005-07-08 06:50:37 51°14.852 2°54.36 13.3 13 15.6 101490 90
2005-07-08 06:50:42 51°14.868 2°54.345 13.5 12 15.6 101490 90
2005-07-08 06:50:46 51°14.88 2°54.333 12.8 12 15.6 101500 91
2005-07-08 06:50:51 51°14.895 2°54.318 12.9 12 15.6 101500 91
2005-07-08 06:50:56 51°14.912 2°54.302 14.4 10 15.6 101510 91
2005-07-08 06:51:02 51°14.929 2°54.286 14.9 12 15.6 101510 91
2005-07-08 06:51:06 51°14.942 2°54.274 12.7 14 15.6 101510 91
2005-07-08 06:51:11 51°14.957 2°54.259 13.4 14 15.6 101510 91
2005-07-08 06:51:17 51°14.974 2°54.242 14.2 14 15.6 101500 91
2005-07-08 06:51:21 51°14.988 2°54.229 13.4 15 15.6 101500 91
2005-07-08 06:51:27 51°15.004 2°54.212 13 12 15.7 101510 91
2005-07-08 06:51:31 51°15.017 2°54.198 13.6 13 15.7 101510 91
2005-07-08 06:51:35 51°15.029 2°54.186 12.8 12 15.7 101510 91
2005-07-08 06:51:41 51°15.046 2°54.167 13.2 13 15.7 101510 91
2005-07-08 06:51:46 51°15.061 2°54.151 13.5 12 15.6 101500 91
2005-07-08 06:51:51 51°15.076 2°54.135 13.9 15 15.6 101500 91
2005-07-08 06:51:57 51°15.092 2°54.119 13.4 13 15.6 101500 91
2005-07-08 06:52:02 51°15.107 2°54.103 13 11 15.6 101500 91
2005-07-08 06:52:07 51°15.122 2°54.088 13.1 14 15.6 101500 91
2005-07-08 06:52:11 51°15.136 2°54.075 13.1 14 15.6 101500 91
2005-07-08 06:52:17 51°15.153 2°54.059 13.6 13 15.6 101510 91
2005-07-08 06:52:22 51°15.168 2°54.044 13.5 13 15.6 101510 91
2005-07-08 06:52:26 51°15.182 2°54.03 13.5 9 15.6 101500 91
2005-07-08 06:52:32 51°15.199 2°54.013 14 10 15.6 101500 91
2005-07-08 06:52:36 51°15.211 2°54.001 13.5 9 15.6 101500 91
2005-07-08 06:52:41 51°15.228 2°53.982 12.8 12 15.6 101500 91
2005-07-08 06:52:46 51°15.241 2°53.967 12.8 11 15.6 101500 91
2005-07-08 06:52:51 51°15.258 2°53.949 14.3 13 15.6 101500 91
2005-07-08 06:52:56 51°15.271 2°53.933 13.9 11 15.6 101500 91
2005-07-08 06:53:01 51°15.288 2°53.914 14.2 12 15.6 101500 91
2005-07-08 06:53:06 51°15.302 2°53.897 14 11 15.6 101500 91
2005-07-08 06:53:11 51°15.317 2°53.88 13.7 15 15.6 101500 91
2005-07-08 06:53:17 51°15.334 2°53.862 13.4 11 15.6 101500 91
2005-07-08 06:53:22 51°15.349 2°53.845 12.8 12 15.6 101500 91
2005-07-08 06:53:26 51°15.363 2°53.83 13 13 15.5 101500 91
2005-07-08 06:53:31 51°15.378 2°53.814 13.2 13 15.5 101500 91
2005-07-08 06:53:36 51°15.394 2°53.798 12.7 14 15.6 101500 91
2005-07-08 06:53:42 51°15.411 2°53.78 12.8 12 15.6 101500 91
2005-07-08 06:53:46 51°15.425 2°53.765 13.1 11 15.6 101510 91
2005-07-08 06:53:51 51°15.439 2°53.751 13.9 8 15.6 101510 91
2005-07-08 06:53:55 51°15.453 2°53.737 12.2 12 15.6 101500 91
2005-07-08 06:54:02 51°15.473 2°53.715 12.5 14 15.6 101500 91
2005-07-08 06:54:06 51°15.485 2°53.702 12.6 9 15.6 101510 91
2005-07-08 06:54:11 51°15.502 2°53.683 14.1 10 15.6 101510 91
2005-07-08 06:54:15 51°15.513 2°53.671 14.1 12 15.6 101510 91
2005-07-08 06:54:22 51°15.534 2°53.647 13.6 10 15.6 101510 91
2005-07-08 06:54:26 51°15.547 2°53.632 13.1 14 15.5 101510 91
2005-07-08 06:54:31 51°15.561 2°53.616 13 14 15.5 101510 91
2005-07-08 06:54:37 51°15.578 2°53.597 13.9 10 15.5 101510 91
2005-07-08 06:54:41 51°15.592 2°53.581 13.6 11 15.5 101510 91
2005-07-08 06:54:46 51°15.608 2°53.564 12.9 -999 15.5 101510 91
2005-07-08 06:54:51 51°15.623 2°53.548 12.2 12 15.5 101510 91
2005-07-08 06:54:55 51°15.635 2°53.535 13.8 11 15.5 101510 91
2005-07-08 06:55:01 51°15.653 2°53.514 13.4 11 15.5 101510 91
2005-07-08 06:55:06 51°15.668 2°53.498 13.4 12 15.5 101500 91
2005-07-08 06:55:12 51°15.684 2°53.48 13.3 11 15.5 101500 91
2005-07-08 06:55:16 51°15.697 2°53.467 12.7 13 15.5 101510 91
2005-07-08 06:55:21 51°15.713 2°53.449 12.1 14 15.5 101510 91
2005-07-08 06:55:26 51°15.727 2°53.435 13.3 19 15.5 101500 91
2005-07-08 06:55:31 51°15.742 2°53.419 13.8 10 15.5 101500 91
2005-07-08 06:55:37 51°15.761 2°53.401 13.3 10 15.5 101500 91
2005-07-08 06:55:42 51°15.777 2°53.385 13.6 14 15.5 101500 91
2005-07-08 06:55:46 51°15.789 2°53.373 13 14 15.5 101510 91
2005-07-08 06:55:51 51°15.806 2°53.357 13.7 10 15.5 101510 91
2005-07-08 06:55:57 51°15.824 2°53.34 12.9 12 15.6 101510 91
2005-07-08 06:56:02 51°15.839 2°53.324 13.6 12 15.6 101510 91
2005-07-08 06:56:06 51°15.851 2°53.312 13.4 13 15.5 101510 91
2005-07-08 06:56:11 51°15.868 2°53.296 12.9 17 15.5 101510 91
2005-07-08 06:56:17 51°15.887 2°53.278 13.4 14 15.5 101510 91
2005-07-08 06:56:22 51°15.901 2°53.264 13.3 15 15.5 101510 91
2005-07-08 06:56:26 51°15.915 2°53.251 12.8 13 15.6 101510 91
2005-07-08 06:56:31 51°15.931 2°53.235 13.7 16 15.6 101510 91
2005-07-08 06:56:36 51°15.947 2°53.22 11.3 14 15.6 101510 91
2005-07-08 06:56:42 51°15.962 2°53.204 11.9 12 15.6 101510 91
2005-07-08 06:56:46 51°15.975 2°53.193 13.6 13 15.6 101510 91
2005-07-08 06:56:51 51°15.991 2°53.176 12.6 13 15.6 101510 91
2005-07-08 06:56:56 51°16.007 2°53.161 12.4 14 15.6 101510 91
2005-07-08 06:57:01 51°16.022 2°53.146 12.2 15 15.6 101510 91
2005-07-08 06:57:06 51°16.036 2°53.133 12.8 15 15.6 101500 91
2005-07-08 06:57:11 51°16.053 2°53.116 12.5 10 15.6 101500 91
2005-07-08 06:57:16 51°16.068 2°53.102 13.6 10 15.6 101510 91
2005-07-08 06:57:22 51°16.086 2°53.085 13.2 10 15.6 101510 91
2005-07-08 06:57:26 51°16.098 2°53.074 12.5 11 15.5 101510 90
2005-07-08 06:57:31 51°16.115 2°53.057 13.3 10 15.5 101510 90
2005-07-08 06:57:36 51°16.13 2°53.044 13.4 8 15.5 101510 91
2005-07-08 06:57:41 51°16.146 2°53.029 13.6 5 15.5 101510 91
2005-07-08 06:57:46 51°16.163 2°53.016 12.8 8 15.6 101510 91
2005-07-08 06:57:51 51°16.178 2°53.003 11.9 6 15.6 101510 91
2005-07-08 06:57:56 51°16.192 2°52.992 13.2 7 15.6 101500 91
2005-07-08 06:58:02 51°16.212 2°52.977 13.3 7 15.6 101500 91
2005-07-08 06:58:06 51°16.225 2°52.967 13.2 6 15.6 101510 91
2005-07-08 06:58:10 51°16.238 2°52.957 13.4 8 15.6 101510 91
2005-07-08 06:58:15 51°16.256 2°52.944 12.9 7 15.6 101510 91
2005-07-08 06:58:22 51°16.277 2°52.929 13.1 4 15.6 101510 91
2005-07-08 06:58:26 51°16.291 2°52.92 13.8 6 15.6 101500 91
2005-07-08 06:58:31 51°16.308 2°52.91 12.6 4 15.6 101500 91
2005-07-08 06:58:36 51°16.326 2°52.899 13.4 4 15.6 101510 91
2005-07-08 06:58:42 51°16.345 2°52.889 13.1 7 15.6 101510 91
2005-07-08 06:58:46 51°16.361 2°52.881 12.9 6 15.6 101520 91
2005-07-08 06:58:51 51°16.377 2°52.872 12.7 8 15.6 101520 91
2005-07-08 06:58:56 51°16.395 2°52.862 13.4 8 15.6 101510 91
2005-07-08 06:59:01 51°16.412 2°52.853 12.3 9 15.6 101510 91
2005-07-08 06:59:06 51°16.427 2°52.845 13.5 8 15.6 101520 91
2005-07-08 06:59:11 51°16.446 2°52.835 13.9 9 15.6 101520 91
2005-07-08 06:59:16 51°16.463 2°52.826 12.9 8 15.5 101500 91
2005-07-08 06:59:22 51°16.481 2°52.817 13.1 7 15.5 101500 91
2005-07-08 06:59:26 51°16.497 2°52.809 12.3 8 15.5 101510 90
2005-07-08 06:59:31 51°16.513 2°52.8 12.2 7 15.5 101510 90
2005-07-08 06:59:35 51°16.527 2°52.793 12.8 9 15.5 101510 90
2005-07-08 06:59:41 51°16.548 2°52.783 13.7 8 15.5 101510 90
2005-07-08 06:59:46 51°16.565 2°52.775 12.2 9 15.5 101510 90
2005-07-08 06:59:51 51°16.582 2°52.766 13.5 7 15.5 101510 90
2005-07-08 06:59:55 51°16.595 2°52.759 12.7 7 15.5 101520 90
2005-07-08 07:00:01 51°16.615 2°52.748 13.9 7 15.5 101520 90
2005-07-08 07:00:06 51°16.631 2°52.741 12.8 4 15.5 101510 90
2005-07-08 07:00:11 51°16.648 2°52.732 13.1 6 15.5 101510 90
2005-07-08 07:00:16 51°16.667 2°52.724 12.6 5 15.5 101510 90
2005-07-08 07:00:21 51°16.684 2°52.717 12.1 5 15.5 101510 90
2005-07-08 07:00:26 51°16.701 2°52.711 12.4 4 15.5 101520 90
2005-07-08 07:00:31 51°16.719 2°52.705 12.7 3 15.5 101520 90
2005-07-08 07:00:36 51°16.734 2°52.699 11.9 4 15.5 101510 90
2005-07-08 07:00:42 51°16.755 2°52.694 12.3 2 15.5 101510 90
2005-07-08 07:00:46 51°16.769 2°52.689 11.5 3 15.5 101510 90
2005-07-08 07:00:51 51°16.787 2°52.683 13.9 8 15.5 101510 90
2005-07-08 07:00:55 51°16.8 2°52.679 13.3 5 15.5 101510 89
2005-07-08 07:01:02 51°16.823 2°52.67 13.2 5 15.5 101510 89
2005-07-08 07:01:06 51°16.839 2°52.665 14.1 4 15.5 101520 90
2005-07-08 07:01:11 51°16.854 2°52.66 12.8 2 15.5 101520 90
2005-07-08 07:01:16 51°16.873 2°52.652 12.9 3 15.5 101520 90
2005-07-08 07:01:22 51°16.891 2°52.646 12.4 7 15.5 101520 90
2005-07-08 07:01:26 51°16.905 2°52.641 12.6 5 15.5 101520 90
2005-07-08 07:01:31 51°16.924 2°52.634 12.5 7 15.5 101520 90
2005-07-08 07:01:35 51°16.938 2°52.629 12.3 5 15.5 101510 90
2005-07-08 07:01:42 51°16.96 2°52.621 12.6 4 15.5 101510 90
2005-07-08 07:01:46 51°16.976 2°52.616 12.7 2 15.5 101510 90
2005-07-08 07:01:51 51°16.993 2°52.609 13.5 2 15.5 101510 90
2005-07-08 07:01:56 51°17.011 2°52.603 13.5 2 15.5 101510 90
2005-07-08 07:02:02 51°17.03 2°52.596 13.5 5 15.5 101510 90
2005-07-08 07:02:06 51°17.044 2°52.592 13.5 5 15.5 101520 90
2005-07-08 07:02:12 51°17.064 2°52.584 12.6 3 15.5 101520 90
2005-07-08 07:02:16 51°17.078 2°52.58 12.9 5 15.5 101510 90
2005-07-08 07:02:22 51°17.099 2°52.572 13 6 15.5 101510 90
2005-07-08 07:02:26 51°17.114 2°52.567 13.3 6 15.5 101510 90
2005-07-08 07:02:31 51°17.131 2°52.561 13 4 15.5 101510 90
2005-07-08 07:02:36 51°17.148 2°52.554 12.8 6 15.6 101510 90
2005-07-08 07:02:42 51°17.167 2°52.548 12.9 7 15.6 101510 90
2005-07-08 07:02:46 51°17.181 2°52.543 13.1 7 15.5 101500 90
2005-07-08 07:02:52 51°17.202 2°52.535 14.3 10 15.5 101500 90
2005-07-08 07:02:56 51°17.217 2°52.529 13.7 7 15.5 101510 90
2005-07-08 07:03:02 51°17.235 2°52.522 13.5 11 15.5 101510 90
2005-07-08 07:03:06 51°17.252 2°52.516 12.5 7 15.5 101510 91
2005-07-08 07:03:11 51°17.268 2°52.51 12.7 9 15.5 101510 91
2005-07-08 07:03:17 51°17.287 2°52.504 14.4 10 15.6 101520 91
2005-07-08 07:03:22 51°17.304 2°52.498 15.1 9 15.6 101520 91
2005-07-08 07:03:26 51°17.318 2°52.493 12.8 8 15.6 101530 91
2005-07-08 07:03:31 51°17.337 2°52.486 13.1 8 15.6 101530 91
2005-07-08 07:03:36 51°17.354 2°52.479 14.6 8 15.6 101510 91
2005-07-08 07:03:42 51°17.373 2°52.472 14.4 5 15.6 101510 91
2005-07-08 07:03:46 51°17.387 2°52.467 13.6 2 15.6 101510 91
2005-07-08 07:03:51 51°17.406 2°52.46 14 3 15.6 101510 91
2005-07-08 07:03:55 51°17.42 2°52.455 13.2 4 15.6 101510 91
2005-07-08 07:04:01 51°17.44 2°52.447 12.7 5 15.6 101510 91
2005-07-08 07:04:06 51°17.455 2°52.442 13.3 5 15.6 101510 91
2005-07-08 07:04:11 51°17.475 2°52.434 13.8 7 15.6 101510 91
2005-07-08 07:04:16 51°17.492 2°52.428 13.2 6 15.5 101510 90
2005-07-08 07:04:22 51°17.51 2°52.421 13.1 5 15.5 101510 90
2005-07-08 07:04:26 51°17.524 2°52.415 13.4 5 15.5 101510 90
2005-07-08 07:04:31 51°17.543 2°52.408 14.4 7 15.5 101510 90
2005-07-08 07:04:37 51°17.562 2°52.401 13.6 3 15.5 101500 90
2005-07-08 07:04:42 51°17.579 2°52.394 13.8 5 15.5 101500 90
2005-07-08 07:04:46 51°17.593 2°52.388 13.3 8 15.5 101510 90
2005-07-08 07:04:51 51°17.611 2°52.381 12.7 9 15.5 101510 90
2005-07-08 07:04:56 51°17.629 2°52.374 13.3 6 15.5 101510 91
2005-07-08 07:05:02 51°17.648 2°52.367 13.6 7 15.5 101510 91
2005-07-08 07:05:06 51°17.662 2°52.361 13 8 15.6 101510 91
2005-07-08 07:05:11 51°17.679 2°52.354 13.4 1 15.6 101510 91
2005-07-08 07:05:16 51°17.698 2°52.348 14.8 356 15.5 101510 91
2005-07-08 07:05:22 51°17.716 2°52.344 13.6 -999 15.5 101510 91
2005-07-08 07:05:26 51°17.73 2°52.343 13.1 358 15.6 101510 90
2005-07-08 07:05:31 51°17.749 2°52.342 13.5 354 15.6 101510 90
2005-07-08 07:05:36 51°17.766 2°52.344 12.6 355 15.6 101520 91
2005-07-08 07:05:42 51°17.785 2°52.346 12 356 15.6 101520 91
2005-07-08 07:05:46 51°17.798 2°52.348 12.7 354 15.6 101520 91
2005-07-08 07:05:51 51°17.817 2°52.351 11.6 354 15.6 101520 91
2005-07-08 07:05:56 51°17.833 2°52.354 13.5 354 15.5 101490 90
2005-07-08 07:06:02 51°17.852 2°52.358 12.2 355 15.5 101490 90
2005-07-08 07:06:06 51°17.866 2°52.36 12.8 353 15.5 101500 90
2005-07-08 07:06:11 51°17.884 2°52.363 12.9 355 15.5 101500 90
2005-07-08 07:06:16 51°17.901 2°52.366 13.4 355 15.6 101500 90
2005-07-08 07:06:21 51°17.918 2°52.369 13 358 15.6 101500 90
2005-07-08 07:06:27 51°17.936 2°52.372 13.4 358 15.6 101500 90
2005-07-08 07:06:31 51°17.952 2°52.375 13.3 360 15.6 101500 90
2005-07-08 07:06:36 51°17.969 2°52.378 11.8 360 15.6 101500 90
2005-07-08 07:06:42 51°17.988 2°52.381 12.1 357 15.6 101500 90
2005-07-08 07:06:46 51°18.001 2°52.384 11.6 358 15.6 101490 90
2005-07-08 07:06:51 51°18.02 2°52.387 12.3 358 15.6 101490 90
2005-07-08 07:06:55 51°18.033 2°52.389 12.3 356 15.6 101510 90
2005-07-08 07:07:01 51°18.053 2°52.393 12.8 354 15.6 101510 90
2005-07-08 07:07:06 51°18.07 2°52.396 13.9 355 15.6 101500 90
2005-07-08 07:07:12 51°18.089 2°52.399 14 355 15.6 101500 90
2005-07-08 07:07:16 51°18.103 2°52.401 12.8 357 15.6 101500 90
2005-07-08 07:07:22 51°18.123 2°52.405 13.9 357 15.6 101500 90
2005-07-08 07:07:26 51°18.137 2°52.407 12.9 351 15.6 101500 90
2005-07-08 07:07:31 51°18.155 2°52.409 13.2 355 15.6 101500 90
2005-07-08 07:07:36 51°18.173 2°52.411 13 350 15.6 101490 90
2005-07-08 07:07:41 51°18.189 2°52.413 12.9 352 15.6 101490 90
2005-07-08 07:07:46 51°18.204 2°52.415 12.8 353 15.6 101510 90
2005-07-08 07:07:51 51°18.223 2°52.417 14 354 15.6 101510 90
2005-07-08 07:07:56 51°18.24 2°52.419 12.4 351 15.6 101500 91
2005-07-08 07:08:01 51°18.255 2°52.42 13.2 352 15.6 101500 91
2005-07-08 07:08:07 51°18.275 2°52.423 13.3 353 15.7 101500 91
2005-07-08 07:08:11 51°18.29 2°52.424 14.2 356 15.7 101500 91
2005-07-08 07:08:16 51°18.307 2°52.426 13.9 357 15.7 101490 91
2005-07-08 07:08:22 51°18.326 2°52.428 13.5 355 15.7 101490 91
2005-07-08 07:08:27 51°18.343 2°52.429 13.1 355 15.7 101500 91
2005-07-08 07:08:31 51°18.357 2°52.431 12.2 357 15.7 101500 91
2005-07-08 07:08:36 51°18.373 2°52.433 13.7 355 15.7 101500 91
2005-07-08 07:08:41 51°18.39 2°52.435 14.1 356 15.7 101500 91
2005-07-08 07:08:46 51°18.406 2°52.437 11.7 355 15.7 101490 90
2005-07-08 07:08:51 51°18.422 2°52.439 13.9 355 15.7 101490 90
2005-07-08 07:08:55 51°18.436 2°52.441 13.4 352 15.7 101510 90
2005-07-08 07:09:01 51°18.457 2°52.443 13.2 353 15.7 101510 90
2005-07-08 07:09:07 51°18.475 2°52.445 12 355 15.6 101490 90
2005-07-08 07:09:11 51°18.489 2°52.447 12.2 354 15.6 101490 90
2005-07-08 07:09:16 51°18.506 2°52.448 12.1 355 15.6 101500 90
2005-07-08 07:09:22 51°18.524 2°52.451 11.6 356 15.6 101500 90
2005-07-08 07:09:26 51°18.539 2°52.452 12.2 357 15.7 101500 90
2005-07-08 07:09:32 51°18.557 2°52.454 11.9 353 15.7 101500 90
2005-07-08 07:09:36 51°18.573 2°52.455 12.1 352 15.7 101510 90
2005-07-08 07:09:42 51°18.59 2°52.458 12.8 4 15.7 101510 90
2005-07-08 07:09:46 51°18.606 2°52.459 13.8 3 15.7 101500 90
2005-07-08 07:09:51 51°18.622 2°52.46 13.1 3 15.7 101500 90
2005-07-08 07:09:56 51°18.639 2°52.462 12.8 1 15.7 101510 90
2005-07-08 07:10:01 51°18.656 2°52.464 13.1 357 15.7 101510 90
2005-07-08 07:10:06 51°18.673 2°52.466 12.6 355 15.7 101500 91
2005-07-08 07:10:11 51°18.689 2°52.467 13.1 356 15.7 101500 91
2005-07-08 07:10:16 51°18.706 2°52.469 12.6 355 15.7 101500 90
2005-07-08 07:10:22 51°18.725 2°52.47 11.6 1 15.7 101500 90
2005-07-08 07:10:26 51°18.738 2°52.471 12.9 358 15.7 101500 90
2005-07-08 07:10:31 51°18.756 2°52.473 13.3 358 15.7 101500 90
2005-07-08 07:10:36 51°18.773 2°52.475 13.3 358 15.7 101500 90
2005-07-08 07:10:42 51°18.792 2°52.476 13.3 355 15.7 101500 90
2005-07-08 07:10:46 51°18.807 2°52.477 12.9 359 15.7 101500 90
2005-07-08 07:10:52 51°18.825 2°52.479 13.4 357 15.7 101500 90
2005-07-08 07:10:56 51°18.838 2°52.48 13.3 357 15.6 101500 90
2005-07-08 07:11:02 51°18.859 2°52.48 13.2 357 15.6 101500 90
2005-07-08 07:11:06 51°18.872 2°52.481 12.9 359 15.6 101500 89
2005-07-08 07:11:12 51°18.892 2°52.481 13.2 1 15.6 101500 89
2005-07-08 07:11:16 51°18.907 2°52.482 12.4 2 15.6 101510 90
2005-07-08 07:11:22 51°18.925 2°52.481 12.2 1 15.6 101510 90
2005-07-08 07:11:26 51°18.939 2°52.482 11.9 -999 15.6 101490 90
2005-07-08 07:11:31 51°18.957 2°52.482 11.3 1 15.6 101490 90
2005-07-08 07:11:36 51°18.974 2°52.482 12.4 355 15.6 101500 90
2005-07-08 07:11:42 51°18.993 2°52.482 12.1 358 15.6 101500 90
2005-07-08 07:11:46 51°19.008 2°52.482 12.5 354 15.6 101510 89
2005-07-08 07:11:51 51°19.025 2°52.482 12.3 358 15.6 101510 89
2005-07-08 07:11:56 51°19.042 2°52.482 13.6 1 15.6 101500 89
2005-07-08 07:12:02 51°19.061 2°52.482 13.5 358 15.6 101500 89
2005-07-08 07:12:06 51°19.075 2°52.483 12.4 358 15.6 101500 90
2005-07-08 07:12:12 51°19.095 2°52.483 12.3 359 15.6 101500 90
2005-07-08 07:12:17 51°19.112 2°52.484 12.1 358 15.6 101500 90
2005-07-08 07:12:22 51°19.129 2°52.484 11.5 358 15.6 101500 90
2005-07-08 07:12:27 51°19.146 2°52.485 12.8 354 15.6 101500 90
2005-07-08 07:12:32 51°19.163 2°52.485 12.8 355 15.6 101500 90
2005-07-08 07:12:36 51°19.176 2°52.486 12 357 15.6 101500 90
2005-07-08 07:12:41 51°19.195 2°52.486 12.8 354 15.6 101500 90
2005-07-08 07:12:46 51°19.212 2°52.486 12.2 356 15.6 101500 89
2005-07-08 07:12:51 51°19.227 2°52.486 11.5 353 15.6 101500 89
2005-07-08 07:12:56 51°19.245 2°52.488 13.7 354 15.6 101490 89
2005-07-08 07:13:02 51°19.264 2°52.489 13.8 357 15.6 101490 89
2005-07-08 07:13:06 51°19.277 2°52.489 13 1 15.6 101500 89
2005-07-08 07:13:12 51°19.297 2°52.489 13.2 -999 15.6 101500 89
2005-07-08 07:13:16 51°19.312 2°52.489 13.3 2 15.6 101510 89
2005-07-08 07:13:21 51°19.329 2°52.489 13.7 2 15.6 101510 89
2005-07-08 07:13:26 51°19.346 2°52.49 12.3 2 15.6 101490 90
2005-07-08 07:13:32 51°19.365 2°52.49 12.3 -999 15.6 101490 90
2005-07-08 07:13:36 51°19.38 2°52.49 12.4 2 15.6 101490 89
2005-07-08 07:13:42 51°19.398 2°52.491 13.2 2 15.6 101490 89
2005-07-08 07:13:46 51°19.414 2°52.491 12.7 360 15.6 101500 89
2005-07-08 07:13:51 51°19.431 2°52.491 12.3 357 15.6 101500 89
2005-07-08 07:13:57 51°19.449 2°52.491 11.8 360 15.6 101500 89
2005-07-08 07:14:01 51°19.464 2°52.491 13 -999 15.6 101500 89
2005-07-08 07:14:06 51°19.479 2°52.492 11.9 -999 15.6 101510 89
2005-07-08 07:14:11 51°19.498 2°52.492 12.4 7 15.6 101510 89
2005-07-08 07:14:16 51°19.515 2°52.493 13.2 4 15.6 101500 89
2005-07-08 07:14:22 51°19.534 2°52.493 12.9 5 15.6 101500 89
2005-07-08 07:14:26 51°19.547 2°52.492 13.3 4 15.6 101510 89
2005-07-08 07:14:31 51°19.566 2°52.493 12.5 5 15.6 101510 89
2005-07-08 07:14:36 51°19.582 2°52.493 12.3 3 15.6 101500 89
2005-07-08 07:14:42 51°19.601 2°52.493 12.1 3 15.6 101500 89
2005-07-08 07:14:47 51°19.617 2°52.492 12.1 -999 15.6 101510 89
2005-07-08 07:14:51 51°19.633 2°52.493 12.2 6 15.6 101510 89
2005-07-08 07:14:55 51°19.646 2°52.493 11.8 2 15.6 101510 88
2005-07-08 07:15:01 51°19.667 2°52.494 11.9 4 15.6 101510 88
2005-07-08 07:15:06 51°19.683 2°52.494 11.9 4 15.6 101520 88
2005-07-08 07:15:11 51°19.697 2°52.495 12.8 5 15.6 101520 88
2005-07-08 07:15:16 51°19.714 2°52.496 11.6 5 15.6 101510 88
2005-07-08 07:15:21 51°19.732 2°52.496 11.1 5 15.6 101510 88
2005-07-08 07:15:26 51°19.749 2°52.496 11.9 1 15.6 101510 88
2005-07-08 07:15:31 51°19.766 2°52.497 11.9 357 15.6 101510 88
2005-07-08 07:15:37 51°19.786 2°52.496 11.3 356 15.6 101520 88
2005-07-08 07:15:41 51°19.8 2°52.497 12.3 359 15.6 101520 88
2005-07-08 07:15:46 51°19.816 2°52.497 11.7 360 15.6 101510 89
2005-07-08 07:15:51 51°19.834 2°52.497 12.8 1 15.6 101510 89
2005-07-08 07:15:56 51°19.849 2°52.497 11.9 357 15.6 101510 89
2005-07-08 07:16:02 51°19.87 2°52.497 12 -999 15.6 101510 89
2005-07-08 07:16:06 51°19.883 2°52.497 12.6 2 15.6 101510 89
2005-07-08 07:16:11 51°19.902 2°52.497 11.9 2 15.6 101510 89
2005-07-08 07:16:15 51°19.913 2°52.498 11.2 1 15.6 101510 89
2005-07-08 07:16:22 51°19.937 2°52.499 11.6 1 15.6 101510 89
2005-07-08 07:16:26 51°19.951 2°52.499 12.1 359 15.6 101500 89
2005-07-08 07:16:31 51°19.969 2°52.5 12.6 -999 15.6 101500 89
2005-07-08 07:16:36 51°19.986 2°52.5 11.8 360 15.6 101510 88
2005-07-08 07:16:42 51°20.004 2°52.5 10.9 357 15.6 101510 88
2005-07-08 07:16:47 51°20.021 2°52.501 11.6 357 15.6 101520 88
2005-07-08 07:16:51 51°20.036 2°52.501 11.6 2 15.6 101520 88
2005-07-08 07:16:56 51°20.053 2°52.501 11.2 357 15.6 101510 88
2005-07-08 07:17:02 51°20.071 2°52.501 12.5 360 15.6 101510 88
2005-07-08 07:17:06 51°20.087 2°52.502 12.7 1 15.6 101510 88
2005-07-08 07:17:11 51°20.104 2°52.502 12.4 360 15.6 101510 88
2005-07-08 07:17:16 51°20.121 2°52.503 11.6 359 15.6 101510 88
2005-07-08 07:17:22 51°20.139 2°52.503 11.8 358 15.6 101510 88
2005-07-08 07:17:27 51°20.156 2°52.504 11.8 359 15.6 101510 89
2005-07-08 07:17:32 51°20.173 2°52.505 11.9 357 15.6 101510 89
2005-07-08 07:17:36 51°20.187 2°52.504 11 359 15.6 101500 89
2005-07-08 07:17:42 51°20.207 2°52.504 11.6 357 15.6 101500 89
2005-07-08 07:17:46 51°20.221 2°52.505 12.1 1 15.6 101500 89
2005-07-08 07:17:51 51°20.24 2°52.505 11.3 354 15.6 101500 89
2005-07-08 07:17:56 51°20.255 2°52.505 12.6 3 15.7 101520 89
2005-07-08 07:18:01 51°20.274 2°52.505 12.3 1 15.7 101520 89
2005-07-08 07:18:06 51°20.288 2°52.505 12.9 2 15.6 101510 88
2005-07-08 07:18:12 51°20.31 2°52.506 12.3 6 15.6 101510 88
2005-07-08 07:18:17 51°20.326 2°52.506 11.5 4 15.6 101500 89
2005-07-08 07:18:22 51°20.343 2°52.506 12.5 3 15.6 101500 89
2005-07-08 07:18:26 51°20.356 2°52.507 11 3 15.7 101500 89
2005-07-08 07:18:31 51°20.375 2°52.506 12.5 360 15.7 101500 89
2005-07-08 07:18:35 51°20.389 2°52.506 12.1 1 15.7 101510 88
2005-07-08 07:18:42 51°20.41 2°52.505 12.8 2 15.7 101510 88
2005-07-08 07:18:46 51°20.424 2°52.505 11.6 3 15.6 101520 88
2005-07-08 07:18:51 51°20.441 2°52.505 10.8 3 15.6 101520 88
2005-07-08 07:18:57 51°20.461 2°52.504 11.3 1 15.7 101510 89
2005-07-08 07:19:01 51°20.476 2°52.504 11.7 360 15.7 101510 89
2005-07-08 07:19:06 51°20.492 2°52.504 11.4 1 15.7 101510 89
2005-07-08 07:19:11 51°20.511 2°52.503 10 2 15.7 101510 89
2005-07-08 07:19:15 51°20.523 2°52.503 11.6 359 15.7 101510 89
2005-07-08 07:19:22 51°20.546 2°52.503 12.8 358 15.7 101510 89
2005-07-08 07:19:26 51°20.56 2°52.503 11.7 358 15.6 101520 88
2005-07-08 07:19:31 51°20.579 2°52.502 12.2 358 15.6 101520 88
2005-07-08 07:19:36 51°20.595 2°52.502 12 2 15.7 101510 89
2005-07-08 07:19:42 51°20.614 2°52.502 11.7 357 15.7 101510 89
2005-07-08 07:19:46 51°20.63 2°52.502 11.7 355 15.7 101510 89
2005-07-08 07:19:52 51°20.649 2°52.502 12.9 355 15.7 101510 89
2005-07-08 07:19:56 51°20.662 2°52.502 12.3 357 15.7 101510 89
2005-07-08 07:20:01 51°20.681 2°52.502 11.6 357 15.7 101510 89
2005-07-08 07:20:06 51°20.696 2°52.503 12.6 356 15.7 101510 89
2005-07-08 07:20:11 51°20.715 2°52.503 12.8 357 15.7 101510 89
2005-07-08 07:20:16 51°20.732 2°52.503 11.7 356 15.7 101510 89
2005-07-08 07:20:22 51°20.751 2°52.503 12 357 15.7 101510 89
2005-07-08 07:20:26 51°20.764 2°52.504 11.8 356 15.7 101510 89
2005-07-08 07:20:31 51°20.782 2°52.505 13.1 353 15.7 101510 89
2005-07-08 07:20:35 51°20.796 2°52.505 12.6 358 15.7 101510 89
2005-07-08 07:20:42 51°20.818 2°52.506 13.1 356 15.7 101510 89
2005-07-08 07:20:46 51°20.833 2°52.507 11.5 359 15.7 101510 89
2005-07-08 07:20:51 51°20.849 2°52.508 11.1 358 15.7 101510 89
2005-07-08 07:20:55 51°20.863 2°52.509 12.4 3 15.7 101520 89
2005-07-08 07:21:01 51°20.883 2°52.509 12 360 15.7 101520 89
2005-07-08 07:21:06 51°20.9 2°52.509 12.3 1 15.7 101520 89
2005-07-08 07:21:11 51°20.917 2°52.508 12.1 359 15.7 101520 89
2005-07-08 07:21:15 51°20.931 2°52.508 12 356 15.7 101510 89
2005-07-08 07:21:22 51°20.954 2°52.508 11.6 359 15.7 101510 89
2005-07-08 07:21:26 51°20.968 2°52.508 12.9 357 15.7 101520 89
2005-07-08 07:21:31 51°20.986 2°52.507 12.7 359 15.7 101520 89
2005-07-08 07:21:36 51°21.004 2°52.506 12.2 3 15.7 101510 89
2005-07-08 07:21:42 51°21.022 2°52.501 12.3 7 15.7 101510 89
2005-07-08 07:21:47 51°21.039 2°52.494 13 6 15.7 101510 89
2005-07-08 07:21:52 51°21.055 2°52.484 11.7 7 15.7 101510 89
2005-07-08 07:21:57 51°21.071 2°52.472 11.3 10 15.7 101510 89
2005-07-08 07:22:02 51°21.087 2°52.459 11.2 10 15.7 101510 89
2005-07-08 07:22:06 51°21.1 2°52.443 11.4 17 15.7 101500 89
2005-07-08 07:22:11 51°21.114 2°52.426 10.6 15 15.7 101500 89
2005-07-08 07:22:16 51°21.126 2°52.409 12.1 18 15.7 101510 89
2005-07-08 07:22:21 51°21.142 2°52.387 11.6 14 15.7 101510 89
2005-07-08 07:22:26 51°21.156 2°52.368 12.2 18 15.7 101520 89
2005-07-08 07:22:31 51°21.17 2°52.347 11.7 17 15.7 101520 89
2005-07-08 07:22:36 51°21.182 2°52.329 12 19 15.7 101510 89
2005-07-08 07:22:42 51°21.198 2°52.306 11.9 16 15.7 101510 89
2005-07-08 07:22:46 51°21.21 2°52.29 11.7 18 15.7 101520 89
2005-07-08 07:22:51 51°21.225 2°52.268 12.2 20 15.7 101520 89
2005-07-08 07:22:56 51°21.237 2°52.249 11.7 21 15.7 101520 89
2005-07-08 07:23:01 51°21.252 2°52.226 12.3 22 15.7 101520 89
2005-07-08 07:23:06 51°21.266 2°52.204 11.8 21 15.7 101530 89
2005-07-08 07:23:11 51°21.279 2°52.183 12.5 19 15.7 101530 89
2005-07-08 07:23:16 51°21.291 2°52.163 11.4 19 15.7 101520 89
2005-07-08 07:23:22 51°21.306 2°52.136 11.4 18 15.7 101520 89
2005-07-08 07:23:27 51°21.32 2°52.114 12 16 15.7 101510 89
2005-07-08 07:23:31 51°21.332 2°52.094 11.7 15 15.7 101510 89
2005-07-08 07:23:35 51°21.342 2°52.077 12.1 14 15.7 101520 89
2005-07-08 07:23:42 51°21.358 2°52.05 12.2 15 15.7 101520 89
2005-07-08 07:23:46 51°21.368 2°52.032 12.7 18 15.8 101510 90
2005-07-08 07:23:51 51°21.381 2°52.01 12.8 14 15.8 101510 90
2005-07-08 07:23:56 51°21.395 2°51.987 13.1 15 15.8 101520 89
2005-07-08 07:24:02 51°21.41 2°51.963 12.5 14 15.8 101520 89
2005-07-08 07:24:06 51°21.42 2°51.946 12.7 15 15.7 101540 89
2005-07-08 07:24:12 51°21.437 2°51.921 13 18 15.7 101540 89
2005-07-08 07:24:16 51°21.449 2°51.902 13.3 17 15.7 101510 89
2005-07-08 07:24:22 51°21.464 2°51.879 13.4 20 15.7 101510 89
2005-07-08 07:24:26 51°21.475 2°51.863 11 17 15.7 101520 89
2005-07-08 07:24:31 51°21.489 2°51.84 11.1 16 15.7 101520 89
2005-07-08 07:24:36 51°21.503 2°51.82 12.7 20 15.7 101520 89
2005-07-08 07:24:41 51°21.516 2°51.8 11.7 17 15.7 101520 89
2005-07-08 07:24:46 51°21.528 2°51.782 11.1 16 15.7 101520 89
2005-07-08 07:24:51 51°21.544 2°51.761 12.9 13 15.7 101520 89
2005-07-08 07:24:56 51°21.558 2°51.742 11.4 14 15.7 101530 88
2005-07-08 07:25:02 51°21.574 2°51.722 11.4 18 15.7 101530 88
2005-07-08 07:25:06 51°21.588 2°51.705 11.4 22 15.7 101510 89
2005-07-08 07:25:11 51°21.602 2°51.686 11.8 16 15.7 101510 89
2005-07-08 07:25:17 51°21.618 2°51.667 12.7 17 15.7 101520 89
2005-07-08 07:25:22 51°21.633 2°51.649 12.9 17 15.7 101520 89
2005-07-08 07:25:26 51°21.646 2°51.636 12 14 15.7 101530 89
2005-07-08 07:25:31 51°21.661 2°51.618 11.3 17 15.7 101530 89
2005-07-08 07:25:36 51°21.678 2°51.601 12 14 15.7 101520 89
2005-07-08 07:25:42 51°21.695 2°51.583 13 14 15.7 101520 89
2005-07-08 07:25:47 51°21.711 2°51.567 11.4 14 15.7 101530 89
2005-07-08 07:25:52 51°21.725 2°51.553 11.4 9 15.7 101530 89
2005-07-08 07:25:56 51°21.74 2°51.541 12 11 15.8 101520 89
2005-07-08 07:26:02 51°21.758 2°51.527 12.2 13 15.8 101520 89
2005-07-08 07:26:06 51°21.771 2°51.517 12.3 13 15.8 101520 89
2005-07-08 07:26:11 51°21.789 2°51.503 11.8 15 15.8 101520 89
2005-07-08 07:26:16 51°21.804 2°51.494 11.9 15 15.8 101530 89
2005-07-08 07:26:22 51°21.824 2°51.482 11.9 12 15.8 101530 89
2005-07-08 07:26:26 51°21.84 2°51.473 11.3 14 15.8 101520 90
2005-07-08 07:26:32 51°21.858 2°51.465 11.7 10 15.8 101520 90
2005-07-08 07:26:36 51°21.874 2°51.458 11.8 4 15.8 101520 89
2005-07-08 07:26:41 51°21.891 2°51.451 12.4 7 15.8 101520 89
2005-07-08 07:26:47 51°21.911 2°51.445 12.2 360 15.8 101520 89
2005-07-08 07:26:51 51°21.927 2°51.44 10.2 12 15.8 101520 89
2005-07-08 07:26:55 51°21.941 2°51.436 8.3 4 15.7 101530 89
2005-07-08 07:27:01 51°21.962 2°51.429 8.5 1 15.7 101530 89
2005-07-08 07:27:06 51°21.978 2°51.425 12.4 4 15.7 101530 89
2005-07-08 07:27:11 51°21.998 2°51.42 12.7 8 15.7 101530 89
2005-07-08 07:27:16 51°22.015 2°51.418 12.4 8 15.7 101520 89
2005-07-08 07:27:21 51°22.032 2°51.415 12.1 7 15.7 101520 89
2005-07-08 07:27:26 51°22.05 2°51.414 11.9 9 15.7 101530 89
2005-07-08 07:27:31 51°22.067 2°51.411 11.6 6 15.7 101530 89
2005-07-08 07:27:36 51°22.085 2°51.41 12.1 6 15.8 101520 89
2005-07-08 07:27:41 51°22.101 2°51.408 12.4 6 15.8 101520 89
2005-07-08 07:27:46 51°22.119 2°51.407 11.7 6 15.8 101520 89
2005-07-08 07:27:51 51°22.136 2°51.406 11.4 5 15.8 101520 89
2005-07-08 07:27:56 51°22.154 2°51.407 11.7 4 15.8 101520 89
2005-07-08 07:28:02 51°22.172 2°51.407 11.7 4 15.8 101520 89
2005-07-08 07:28:07 51°22.189 2°51.408 12.6 7 15.8 101530 89
2005-07-08 07:28:11 51°22.205 2°51.409 12.6 7 15.8 101530 89
2005-07-08 07:28:16 51°22.222 2°51.411 12.3 6 15.7 101520 88
2005-07-08 07:28:22 51°22.24 2°51.413 11.7 4 15.7 101520 88
2005-07-08 07:28:26 51°22.254 2°51.415 11.8 4 15.7 101520 88
2005-07-08 07:28:31 51°22.273 2°51.418 11.9 1 15.7 101520 88
2005-07-08 07:28:36 51°22.29 2°51.42 12.3 3 15.7 101530 89
2005-07-08 07:28:41 51°22.307 2°51.424 11.8 358 15.7 101530 89
2005-07-08 07:28:46 51°22.322 2°51.427 11.9 -999 15.7 101520 88
2005-07-08 07:28:52 51°22.343 2°51.432 12.4 357 15.7 101520 88
2005-07-08 07:28:57 51°22.36 2°51.435 11.7 3 15.7 101520 88
2005-07-08 07:29:02 51°22.377 2°51.439 11.8 3 15.7 101520 88
2005-07-08 07:29:06 51°22.391 2°51.441 11.9 2 15.7 101510 88
2005-07-08 07:29:11 51°22.409 2°51.445 11.3 3 15.7 101510 88
2005-07-08 07:29:15 51°22.423 2°51.447 12.1 7 15.7 101510 88
2005-07-08 07:29:22 51°22.445 2°51.452 11.1 2 15.7 101510 88
2005-07-08 07:29:26 51°22.459 2°51.454 11.5 6 15.7 101510 88
2005-07-08 07:29:31 51°22.478 2°51.458 12.3 5 15.7 101510 88
2005-07-08 07:29:37 51°22.499 2°51.46 12.1 2 15.7 101520 88
2005-07-08 07:29:42 51°22.514 2°51.464 11.9 359 15.7 101520 88
2005-07-08 07:29:46 51°22.528 2°51.464 10.9 355 15.7 101520 88
2005-07-08 07:29:51 51°22.547 2°51.468 11.2 359 15.7 101520 88
2005-07-08 07:29:57 51°22.567 2°51.471 11.4 360 15.7 101510 88
2005-07-08 07:30:01 51°22.581 2°51.473 11.1 -999 15.7 101510 88
2005-07-08 07:30:06 51°22.596 2°51.475 10.7 5 15.8 101520 89
2005-07-08 07:30:11 51°22.615 2°51.477 10.4 358 15.8 101520 89
2005-07-08 07:30:16 51°22.632 2°51.48 12.3 2 15.8 101520 89
2005-07-08 07:30:22 51°22.651 2°51.483 11.7 4 15.8 101520 89
2005-07-08 07:30:26 51°22.665 2°51.485 12.2 2 15.8 101520 89
2005-07-08 07:30:32 51°22.686 2°51.488 11.6 7 15.8 101520 89
2005-07-08 07:30:35 51°22.697 2°51.489 9.9 4 15.8 101510 89
2005-07-08 07:30:41 51°22.717 2°51.491 10.2 1 15.8 101510 89
2005-07-08 07:30:47 51°22.735 2°51.494 11.4 359 15.8 101520 89
2005-07-08 07:30:52 51°22.753 2°51.497 11.7 355 15.8 101520 89
2005-07-08 07:30:57 51°22.77 2°51.498 12 358 15.8 101510 89
2005-07-08 07:31:02 51°22.787 2°51.501 11.2 354 15.8 101510 89
2005-07-08 07:31:06 51°22.801 2°51.503 11.2 359 15.8 101520 89
2005-07-08 07:31:11 51°22.82 2°51.505 11.7 358 15.8 101520 89
2005-07-08 07:31:16 51°22.835 2°51.507 11.8 359 15.8 101510 89
2005-07-08 07:31:22 51°22.857 2°51.51 11.8 359 15.8 101510 89
2005-07-08 07:31:26 51°22.87 2°51.512 10.9 -999 15.8 101520 89
2005-07-08 07:31:31 51°22.889 2°51.514 11 360 15.8 101520 89
2005-07-08 07:31:36 51°22.906 2°51.516 10.8 1 15.8 101510 89
2005-07-08 07:31:41 51°22.923 2°51.519 12 1 15.8 101510 89
2005-07-08 07:31:46 51°22.941 2°51.521 10.6 2 15.8 101510 89
2005-07-08 07:31:52 51°22.959 2°51.524 11.2 4 15.8 101510 89
2005-07-08 07:31:56 51°22.972 2°51.525 11.2 3 15.8 101520 89
2005-07-08 07:32:02 51°22.993 2°51.529 11.3 5 15.8 101520 89
2005-07-08 07:32:06 51°23.006 2°51.53 11.3 4 15.8 101520 89
2005-07-08 07:32:11 51°23.025 2°51.533 10.5 2 15.8 101520 89
2005-07-08 07:32:16 51°23.042 2°51.534 11 5 15.8 101520 89
2005-07-08 07:32:22 51°23.06 2°51.537 11.5 3 15.8 101520 89
2005-07-08 07:32:26 51°23.074 2°51.537 11.4 6 15.8 101510 89
2005-07-08 07:32:31 51°23.093 2°51.541 11.1 2 15.8 101510 89
2005-07-08 07:32:36 51°23.11 2°51.542 10.6 5 15.8 101510 88
2005-07-08 07:32:42 51°23.129 2°51.545 12 5 15.8 101510 88
2005-07-08 07:32:46 51°23.144 2°51.547 11.6 5 15.7 101530 88
2005-07-08 07:32:51 51°23.161 2°51.549 11.8 8 15.7 101530 88
2005-07-08 07:32:55 51°23.174 2°51.552 11.1 5 15.8 101510 89
2005-07-08 07:33:01 51°23.195 2°51.554 11.1 7 15.8 101510 89
2005-07-08 07:33:07 51°23.213 2°51.557 10.8 7 15.8 101520 89
2005-07-08 07:33:11 51°23.228 2°51.558 11.1 5 15.8 101520 89
2005-07-08 07:33:15 51°23.241 2°51.561 10.5 5 15.8 101510 88
2005-07-08 07:33:21 51°23.261 2°51.564 10.4 6 15.8 101510 88
2005-07-08 07:33:27 51°23.281 2°51.567 10.7 2 15.8 101520 88
2005-07-08 07:33:31 51°23.296 2°51.569 12 4 15.8 101520 88
2005-07-08 07:33:36 51°23.312 2°51.57 10.6 2 15.8 101520 88
2005-07-08 07:33:41 51°23.329 2°51.573 9.9 3 15.8 101520 88
2005-07-08 07:33:46 51°23.346 2°51.575 11.8 357 15.8 101530 88
2005-07-08 07:33:51 51°23.362 2°51.578 11.2 359 15.8 101530 88
2005-07-08 07:33:56 51°23.379 2°51.58 11.1 360 15.8 101510 88
2005-07-08 07:34:02 51°23.398 2°51.583 10.6 7 15.8 101510 88
2005-07-08 07:34:06 51°23.411 2°51.585 10.9 7 15.8 101530 88
2005-07-08 07:34:11 51°23.43 2°51.589 10.3 9 15.8 101530 88
2005-07-08 07:34:16 51°23.447 2°51.591 10.6 5 15.8 101520 88
2005-07-08 07:34:22 51°23.465 2°51.595 10.1 4 15.8 101520 88
2005-07-08 07:34:26 51°23.48 2°51.596 10.9 6 15.8 101510 88
2005-07-08 07:34:31 51°23.496 2°51.6 10.6 1 15.8 101510 88
2005-07-08 07:34:36 51°23.513 2°51.602 10.8 359 15.8 101520 88
2005-07-08 07:34:42 51°23.531 2°51.605 11.5 7 15.8 101520 88
2005-07-08 07:34:46 51°23.547 2°51.606 11.6 2 15.8 101520 88
2005-07-08 07:34:51 51°23.564 2°51.609 12 4 15.8 101520 88
2005-07-08 07:34:57 51°23.583 2°51.611 10.3 5 15.8 101520 88
2005-07-08 07:35:02 51°23.599 2°51.613 11 7 15.8 101520 88
2005-07-08 07:35:06 51°23.613 2°51.614 10.7 8 15.8 101530 89
2005-07-08 07:35:11 51°23.63 2°51.615 10.5 10 15.8 101530 89
2005-07-08 07:35:16 51°23.648 2°51.618 11.5 10 15.8 101520 88
2005-07-08 07:35:22 51°23.666 2°51.621 10.9 9 15.8 101520 88
2005-07-08 07:35:26 51°23.679 2°51.623 9.8 7 15.8 101520 88
2005-07-08 07:35:32 51°23.7 2°51.626 11 3 15.8 101520 88
2005-07-08 07:35:36 51°23.715 2°51.627 10 9 15.8 101540 88
2005-07-08 07:35:42 51°23.732 2°51.63 10.4 4 15.8 101540 88
2005-07-08 07:35:46 51°23.748 2°51.631 11.4 3 15.8 101520 87
2005-07-08 07:35:51 51°23.764 2°51.634 10.9 3 15.8 101520 87
2005-07-08 07:35:57 51°23.783 2°51.636 10.8 6 15.7 101520 87
2005-07-08 07:36:02 51°23.8 2°51.637 10.5 4 15.7 101520 87
2005-07-08 07:36:06 51°23.814 2°51.639 11.5 6 15.7 101530 87
2005-07-08 07:36:11 51°23.832 2°51.642 11.5 3 15.7 101530 87
2005-07-08 07:36:16 51°23.847 2°51.644 10 5 15.7 101530 87
2005-07-08 07:36:22 51°23.868 2°51.647 10.5 4 15.7 101530 87
2005-07-08 07:36:26 51°23.881 2°51.648 11.3 4 15.7 101530 87
2005-07-08 07:36:31 51°23.9 2°51.65 10.6 6 15.7 101530 87
2005-07-08 07:36:37 51°23.92 2°51.652 11.2 6 15.7 101530 87
2005-07-08 07:36:42 51°23.935 2°51.653 10.3 11 15.7 101530 87
2005-07-08 07:36:46 51°23.951 2°51.655 11.3 6 15.7 101520 87
2005-07-08 07:36:52 51°23.969 2°51.658 10.3 8 15.7 101520 87
2005-07-08 07:36:56 51°23.982 2°51.659 10.5 4 15.7 101530 87
2005-07-08 07:37:02 51°24.003 2°51.662 10.2 5 15.7 101530 87
2005-07-08 07:37:06 51°24.016 2°51.664 10.9 2 15.7 101530 87
2005-07-08 07:37:11 51°24.035 2°51.665 12.1 4 15.7 101530 87
2005-07-08 07:37:17 51°24.054 2°51.667 10.9 6 15.7 101530 87
2005-07-08 07:37:22 51°24.07 2°51.669 11.4 5 15.7 101530 87
2005-07-08 07:37:26 51°24.084 2°51.671 12.8 2 15.7 101520 87
2005-07-08 07:37:31 51°24.1 2°51.672 12.5 1 15.7 101520 87
2005-07-08 07:37:35 51°24.116 2°51.675 11.7 1 15.7 101530 87
2005-07-08 07:37:42 51°24.139 2°51.677 11.8 360 15.7 101530 87
2005-07-08 07:37:46 51°24.154 2°51.678 11.9 2 15.7 101530 87
2005-07-08 07:37:51 51°24.169 2°51.68 11.7 1 15.7 101530 87
2005-07-08 07:37:55 51°24.185 2°51.682 11.3 356 15.8 101520 87
2005-07-08 07:38:02 51°24.207 2°51.684 11.9 357 15.8 101520 87
2005-07-08 07:38:06 51°24.222 2°51.686 12.8 2 15.8 101520 87
2005-07-08 07:38:11 51°24.239 2°51.688 11.1 4 15.8 101520 87
2005-07-08 07:38:17 51°24.259 2°51.69 11.6 3 15.8 101520 87
2005-07-08 07:38:22 51°24.274 2°51.692 11.2 7 15.8 101520 87
2005-07-08 07:38:26 51°24.288 2°51.693 10.9 357 15.8 101520 87
2005-07-08 07:38:32 51°24.309 2°51.695 11.2 2 15.8 101520 87
2005-07-08 07:38:36 51°24.324 2°51.697 11 1 15.8 101510 87
2005-07-08 07:38:42 51°24.342 2°51.699 11.6 5 15.8 101510 87
2005-07-08 07:38:46 51°24.356 2°51.699 12.2 3 15.8 101520 87
2005-07-08 07:38:52 51°24.376 2°51.702 11.8 4 15.8 101520 87
2005-07-08 07:38:56 51°24.392 2°51.703 10.8 360 15.8 101520 86
2005-07-08 07:39:02 51°24.41 2°51.705 10.5 -999 15.8 101520 86
2005-07-08 07:39:07 51°24.427 2°51.706 11.5 3 15.8 101520 86
2005-07-08 07:39:11 51°24.443 2°51.708 11.4 359 15.8 101520 86
2005-07-08 07:39:16 51°24.459 2°51.71 9.8 359 15.8 101520 86
2005-07-08 07:39:22 51°24.477 2°51.711 10.6 2 15.8 101520 86
2005-07-08 07:39:26 51°24.491 2°51.712 11.2 1 15.7 101530 86
2005-07-08 07:39:31 51°24.508 2°51.714 11.3 359 15.7 101530 86
2005-07-08 07:39:35 51°24.523 2°51.714 11.4 359 15.8 101510 86
2005-07-08 07:39:41 51°24.544 2°51.717 11.6 355 15.8 101510 86
2005-07-08 07:39:46 51°24.56 2°51.719 11.4 357 15.8 101520 87
2005-07-08 07:39:52 51°24.579 2°51.721 11.5 359 15.8 101520 87
2005-07-08 07:39:56 51°24.594 2°51.722 10.8 358 15.8 101510 87
2005-07-08 07:40:02 51°24.612 2°51.724 11.2 358 15.8 101510 87
2005-07-08 07:40:06 51°24.625 2°51.725 11.5 357 15.8 101510 87
2005-07-08 07:40:11 51°24.644 2°51.727 11 356 15.8 101510 87
2005-07-08 07:40:17 51°24.663 2°51.729 11.2 358 15.8 101510 87
2005-07-08 07:40:22 51°24.68 2°51.731 12 352 15.8 101510 87
2005-07-08 07:40:26 51°24.693 2°51.733 11.4 359 15.8 101520 87
2005-07-08 07:40:31 51°24.711 2°51.735 11.4 360 15.8 101520 87
2005-07-08 07:40:36 51°24.726 2°51.737 12.1 358 15.8 101520 87
2005-07-08 07:40:41 51°24.745 2°51.739 11.6 354 15.8 101520 87
2005-07-08 07:40:46 51°24.762 2°51.741 11.6 359 15.8 101520 87
2005-07-08 07:40:51 51°24.779 2°51.743 11.6 355 15.8 101520 87
2005-07-08 07:40:56 51°24.795 2°51.745 11.1 360 15.8 101530 87
2005-07-08 07:41:01 51°24.813 2°51.747 9.6 4 15.8 101530 87
2005-07-08 07:41:07 51°24.831 2°51.75 12.1 3 15.8 101520 87
2005-07-08 07:41:11 51°24.846 2°51.752 11.9 3 15.8 101520 87
2005-07-08 07:41:16 51°24.862 2°51.754 11.6 6 15.8 101510 87
2005-07-08 07:41:22 51°24.881 2°51.756 10.9 2 15.8 101510 87
2005-07-08 07:41:27 51°24.898 2°51.757 11.5 360 15.8 101520 87
2005-07-08 07:41:31 51°24.913 2°51.758 11.3 2 15.8 101520 87
2005-07-08 07:41:36 51°24.93 2°51.76 10.8 357 15.8 101510 87
2005-07-08 07:41:42 51°24.949 2°51.762 10.5 5 15.8 101510 87
2005-07-08 07:41:46 51°24.962 2°51.762 10.5 360 15.7 101520 87
2005-07-08 07:41:51 51°24.98 2°51.765 10.7 358 15.7 101520 87
2005-07-08 07:41:56 51°24.999 2°51.766 10.8 -999 15.7 101520 87
2005-07-08 07:42:02 51°25.017 2°51.768 11.7 1 15.7 101520 87
2005-07-08 07:42:06 51°25.031 2°51.769 12.4 359 15.7 101520 87
2005-07-08 07:42:12 51°25.052 2°51.772 11.7 353 15.7 101520 87
2005-07-08 07:42:16 51°25.067 2°51.774 11.6 353 15.7 101510 87
2005-07-08 07:42:22 51°25.085 2°51.777 11.5 352 15.7 101510 87
2005-07-08 07:42:26 51°25.101 2°51.78 12.5 355 15.7 101530 87
2005-07-08 07:42:31 51°25.118 2°51.783 11.6 355 15.7 101530 87
2005-07-08 07:42:35 51°25.131 2°51.786 12.3 356 15.7 101520 88
2005-07-08 07:42:41 51°25.152 2°51.791 11.8 359 15.7 101520 88
2005-07-08 07:42:46 51°25.168 2°51.794 11 358 15.7 101520 88
2005-07-08 07:42:52 51°25.188 2°51.798 12.1 356 15.7 101520 88
2005-07-08 07:42:56 51°25.202 2°51.802 11.4 358 15.7 101510 87
2005-07-08 07:43:02 51°25.222 2°51.805 12.4 360 15.7 101510 87
2005-07-08 07:43:07 51°25.24 2°51.81 11.1 356 15.7 101510 87
2005-07-08 07:43:11 51°25.254 2°51.812 11.9 1 15.7 101510 87
2005-07-08 07:43:17 51°25.273 2°51.816 10.2 359 15.7 101520 88
2005-07-08 07:43:22 51°25.29 2°51.82 10.4 359 15.7 101520 88
2005-07-08 07:43:26 51°25.303 2°51.823 11.2 356 15.7 101520 88
2005-07-08 07:43:31 51°25.321 2°51.827 11.2 354 15.7 101520 88
2005-07-08 07:43:36 51°25.337 2°51.83 10.3 359 15.7 101510 88
2005-07-08 07:43:42 51°25.356 2°51.833 10.8 357 15.7 101510 88
2005-07-08 07:43:46 51°25.37 2°51.837 9.9 1 15.7 101520 88
2005-07-08 07:43:51 51°25.388 2°51.84 11.7 356 15.7 101520 88
2005-07-08 07:43:57 51°25.407 2°51.844 11.4 358 15.7 101520 88
2005-07-08 07:44:02 51°25.423 2°51.847 11.3 355 15.7 101520 88
2005-07-08 07:44:06 51°25.437 2°51.85 11.5 356 15.7 101520 88
2005-07-08 07:44:11 51°25.453 2°51.853 11.1 354 15.7 101520 88
2005-07-08 07:44:17 51°25.473 2°51.858 10.8 354 15.7 101520 88
2005-07-08 07:44:22 51°25.49 2°51.863 12.1 359 15.7 101520 88
2005-07-08 07:44:26 51°25.505 2°51.866 11.2 354 15.7 101510 88
2005-07-08 07:44:32 51°25.523 2°51.87 11.7 355 15.7 101510 88
2005-07-08 07:44:36 51°25.536 2°51.874 11.2 351 15.7 101510 88
2005-07-08 07:44:42 51°25.556 2°51.879 10.3 353 15.7 101510 88
2005-07-08 07:44:47 51°25.573 2°51.885 10.5 357 15.7 101510 88
2005-07-08 07:44:52 51°25.589 2°51.89 10.1 359 15.7 101510 88
2005-07-08 07:44:55 51°25.601 2°51.895 11.2 354 15.7 101520 88
2005-07-08 07:45:02 51°25.622 2°51.903 11.1 355 15.7 101520 88
2005-07-08 07:45:06 51°25.636 2°51.908 11.1 353 15.7 101500 88
2005-07-08 07:45:11 51°25.653 2°51.917 10.2 353 15.7 101500 88
2005-07-08 07:45:16 51°25.67 2°51.924 9.9 354 15.7 101510 88
2005-07-08 07:45:22 51°25.686 2°51.935 10.1 355 15.7 101510 88
2005-07-08 07:45:26 51°25.701 2°51.944 10.5 351 15.7 101520 88
2005-07-08 07:45:32 51°25.717 2°51.956 9.7 355 15.7 101520 88
2005-07-08 07:45:36 51°25.73 2°51.964 10.7 354 15.7 101520 88
2005-07-08 07:45:42 51°25.748 2°51.979 10 355 15.7 101520 88
2005-07-08 07:45:47 51°25.762 2°51.99 10.3 343 15.7 101520 88
2005-07-08 07:45:52 51°25.778 2°52.003 11.3 346 15.7 101520 88
2005-07-08 07:45:56 51°25.79 2°52.014 10.2 356 15.7 101520 88
2005-07-08 07:46:02 51°25.805 2°52.029 10.4 353 15.7 101520 88
2005-07-08 07:46:06 51°25.818 2°52.042 11.5 351 15.7 101520 88
2005-07-08 07:46:11 51°25.83 2°52.055 10.6 351 15.7 101520 88
2005-07-08 07:46:16 51°25.845 2°52.068 10 355 15.7 101510 88
2005-07-08 07:46:22 51°25.862 2°52.083 10.9 351 15.7 101510 88
2005-07-08 07:46:27 51°25.878 2°52.096 10.1 351 15.7 101520 89
2005-07-08 07:46:31 51°25.889 2°52.106 9.9 350 15.7 101520 89
2005-07-08 07:46:35 51°25.901 2°52.115 10 351 15.7 101510 88
2005-07-08 07:46:42 51°25.919 2°52.132 11.3 352 15.7 101510 88
2005-07-08 07:46:46 51°25.931 2°52.142 10.9 350 15.7 101530 88
2005-07-08 07:46:51 51°25.946 2°52.154 9.9 352 15.7 101530 88
2005-07-08 07:46:56 51°25.961 2°52.166 10.3 348 15.7 101530 88
2005-07-08 07:47:01 51°25.977 2°52.179 9.8 352 15.7 101530 88
2005-07-08 07:47:06 51°25.991 2°52.19 10 349 15.7 101520 89
2005-07-08 07:47:12 51°26.008 2°52.205 10.2 348 15.7 101520 89
2005-07-08 07:47:16 51°26.021 2°52.217 10 345 15.7 101510 89
2005-07-08 07:47:22 51°26.037 2°52.23 10.8 347 15.7 101510 89
2005-07-08 07:47:26 51°26.05 2°52.241 9.5 348 15.7 101510 89
2005-07-08 07:47:31 51°26.065 2°52.253 10.6 347 15.7 101510 89
2005-07-08 07:47:35 51°26.076 2°52.262 11.2 345 15.8 101520 89
2005-07-08 07:47:42 51°26.095 2°52.28 11.4 347 15.8 101520 89
2005-07-08 07:47:46 51°26.109 2°52.29 11.7 346 15.7 101520 89
2005-07-08 07:47:52 51°26.124 2°52.305 10.8 350 15.7 101520 89
2005-07-08 07:47:56 51°26.138 2°52.317 11 348 15.8 101510 89
2005-07-08 07:48:02 51°26.153 2°52.331 9.6 351 15.8 101510 89
2005-07-08 07:48:06 51°26.165 2°52.341 10.9 349 15.8 101510 89
2005-07-08 07:48:11 51°26.18 2°52.354 10.6 347 15.8 101510 89
2005-07-08 07:48:16 51°26.196 2°52.369 11.4 349 15.8 101520 89
2005-07-08 07:48:22 51°26.212 2°52.384 11.2 350 15.8 101520 89
2005-07-08 07:48:26 51°26.223 2°52.394 10.5 350 15.8 101520 89
2005-07-08 07:48:31 51°26.239 2°52.409 10.5 352 15.8 101520 89
2005-07-08 07:48:35 51°26.25 2°52.418 11.4 350 15.8 101510 88
2005-07-08 07:48:42 51°26.269 2°52.436 10.9 349 15.8 101510 88
2005-07-08 07:48:46 51°26.28 2°52.446 11 350 15.8 101520 88
2005-07-08 07:48:51 51°26.296 2°52.461 9.9 347 15.8 101520 88
2005-07-08 07:48:56 51°26.311 2°52.475 10.2 351 15.8 101520 88
2005-07-08 07:49:02 51°26.327 2°52.49 10.3 351 15.8 101520 88
2005-07-08 07:49:06 51°26.34 2°52.502 9.7 355 15.8 101520 89
2005-07-08 07:49:12 51°26.356 2°52.516 9.6 353 15.8 101520 89
2005-07-08 07:49:16 51°26.369 2°52.529 9.6 351 15.9 101520 89
2005-07-08 07:49:21 51°26.383 2°52.542 9 353 15.9 101520 89
2005-07-08 07:49:26 51°26.398 2°52.554 10.7 351 15.9 101520 89
2005-07-08 07:49:31 51°26.412 2°52.568 9.6 349 15.9 101520 89
2005-07-08 07:49:36 51°26.427 2°52.581 10.7 348 15.8 101520 88
2005-07-08 07:49:41 51°26.441 2°52.594 9.9 348 15.8 101520 88
2005-07-08 07:49:46 51°26.456 2°52.608 9.5 347 15.8 101530 88
2005-07-08 07:49:51 51°26.47 2°52.621 9.4 347 15.8 101530 88
2005-07-08 07:49:56 51°26.485 2°52.634 12 360 15.9 101530 88
2005-07-08 07:50:02 51°26.501 2°52.649 11.3 357 15.9 101530 88
2005-07-08 07:50:06 51°26.513 2°52.66 11.3 2 15.9 101520 88
2005-07-08 07:50:11 51°26.529 2°52.674 11.3 355 15.9 101520 88
2005-07-08 07:50:16 51°26.542 2°52.685 10.8 357 15.9 101530 88
2005-07-08 07:50:21 51°26.558 2°52.7 10.8 356 15.9 101530 88
2005-07-08 07:50:26 51°26.571 2°52.712 10.4 357 15.9 101530 88
2005-07-08 07:50:31 51°26.587 2°52.725 10.5 353 15.9 101530 88
2005-07-08 07:50:36 51°26.602 2°52.739 10.9 355 15.9 101530 88
2005-07-08 07:50:42 51°26.618 2°52.753 10.6 358 15.9 101530 88
2005-07-08 07:50:46 51°26.629 2°52.764 10.5 359 15.9 101520 87
2005-07-08 07:50:51 51°26.646 2°52.779 10 359 15.9 101520 87
2005-07-08 07:50:55 51°26.658 2°52.789 10.4 356 15.9 101520 87
2005-07-08 07:51:02 51°26.677 2°52.807 10.3 360 15.9 101520 87
2005-07-08 07:51:06 51°26.691 2°52.817 10.4 354 15.9 101520 86
2005-07-08 07:51:11 51°26.706 2°52.83 10.4 357 15.9 101520 86
2005-07-08 07:51:16 51°26.721 2°52.842 9.5 359 15.9 101520 86
2005-07-08 07:51:22 51°26.737 2°52.856 9.6 1 15.9 101520 86
2005-07-08 07:51:26 51°26.749 2°52.866 10 359 15.9 101520 86
2005-07-08 07:51:32 51°26.766 2°52.881 10.6 356 15.9 101520 86
2005-07-08 07:51:36 51°26.78 2°52.893 9.7 356 15.9 101530 85
2005-07-08 07:51:42 51°26.796 2°52.907 9.6 358 15.9 101530 85
2005-07-08 07:51:46 51°26.807 2°52.917 10.1 354 15.9 101530 85
2005-07-08 07:51:52 51°26.825 2°52.932 10 355 15.9 101530 85
2005-07-08 07:51:56 51°26.836 2°52.942 10.9 347 15.9 101530 85
2005-07-08 07:52:02 51°26.854 2°52.959 9.7 354 15.9 101530 85
2005-07-08 07:52:06 51°26.867 2°52.969 9.7 356 15.9 101520 85
2005-07-08 07:52:12 51°26.883 2°52.983 10.8 355 15.9 101520 85
2005-07-08 07:52:16 51°26.897 2°52.995 10.3 358 15.9 101520 85
2005-07-08 07:52:22 51°26.912 2°53.008 10.7 358 15.9 101520 85
2005-07-08 07:52:26 51°26.925 2°53.02 10 -999 15.9 101510 84
2005-07-08 07:52:31 51°26.94 2°53.033 10.3 356 15.9 101510 84
2005-07-08 07:52:37 51°26.956 2°53.047 9.5 3 15.9 101520 84
2005-07-08 07:52:42 51°26.97 2°53.06 10.9 2 15.9 101520 84
2005-07-08 07:52:46 51°26.983 2°53.073 10.9 359 15.9 101530 84
2005-07-08 07:52:51 51°26.998 2°53.085 11.4 357 15.9 101530 84
2005-07-08 07:52:57 51°27.014 2°53.099 10.8 356 15.9 101520 84
2005-07-08 07:53:02 51°27.028 2°53.111 9.9 359 15.9 101520 84
2005-07-08 07:53:06 51°27.039 2°53.122 11.3 358 15.9 101540 84
2005-07-08 07:53:11 51°27.055 2°53.137 10.7 359 15.9 101540 84
2005-07-08 07:53:15 51°27.067 2°53.147 10.2 1 15.9 101520 83
2005-07-08 07:53:22 51°27.085 2°53.164 9.5 2 15.9 101520 83
2005-07-08 07:53:26 51°27.097 2°53.174 10.5 359 15.9 101530 83
2005-07-08 07:53:31 51°27.113 2°53.19 10.3 356 15.9 101530 83
2005-07-08 07:53:37 51°27.129 2°53.203 10.3 357 15.9 101520 83
2005-07-08 07:53:42 51°27.143 2°53.218 11.5 356 15.9 101520 83
2005-07-08 07:53:46 51°27.156 2°53.229 10.4 358 15.9 101530 82
2005-07-08 07:53:51 51°27.17 2°53.242 10.1 358 15.9 101530 82
2005-07-08 07:53:56 51°27.184 2°53.255 11.8 357 15.9 101520 82
2005-07-08 07:54:02 51°27.201 2°53.27 11.1 1 15.9 101520 82
2005-07-08 07:54:06 51°27.213 2°53.279 10.6 360 15.9 101530 83
2005-07-08 07:54:11 51°27.228 2°53.29 9.9 358 15.9 101530 83
2005-07-08 07:54:15 51°27.24 2°53.298 10.9 3 15.9 101530 83
2005-07-08 07:54:22 51°27.259 2°53.312 10.9 -999 15.9 101530 83
2005-07-08 07:54:26 51°27.271 2°53.321 10.5 2 15.9 101510 83
2005-07-08 07:54:31 51°27.287 2°53.333 11.2 1 15.9 101510 83
2005-07-08 07:54:36 51°27.302 2°53.344 10.2 2 15.9 101520 82
2005-07-08 07:54:42 51°27.318 2°53.354 9.7 2 15.9 101520 82
2005-07-08 07:54:46 51°27.33 2°53.362 10.7 1 15.9 101530 82
2005-07-08 07:54:52 51°27.349 2°53.376 10.7 359 15.9 101530 82
2005-07-08 07:54:56 51°27.361 2°53.384 10.7 1 15.9 101530 82
2005-07-08 07:55:01 51°27.378 2°53.396 9.6 1 15.9 101530 82
2005-07-08 07:55:06 51°27.393 2°53.406 11.3 -999 15.9 101530 82
2005-07-08 07:55:11 51°27.408 2°53.417 10.7 2 15.9 101530 82
2005-07-08 07:55:17 51°27.425 2°53.429 10.4 1 15.9 101530 82
2005-07-08 07:55:22 51°27.44 2°53.439 10.6 358 15.9 101530 82
2005-07-08 07:55:26 51°27.452 2°53.448 10.6 354 15.9 101530 82
2005-07-08 07:55:31 51°27.469 2°53.459 10 351 15.9 101530 82
2005-07-08 07:55:36 51°27.482 2°53.47 9.9 353 15.9 101530 82
2005-07-08 07:55:42 51°27.501 2°53.483 11.7 357 15.9 101530 82
2005-07-08 07:55:46 51°27.513 2°53.492 9.8 356 15.9 101520 81
2005-07-08 07:55:52 51°27.53 2°53.504 10.2 1 15.9 101520 81
2005-07-08 07:55:56 51°27.544 2°53.514 10.3 -999 16 101520 81
2005-07-08 07:56:02 51°27.56 2°53.527 11.2 360 16 101520 81
2005-07-08 07:56:06 51°27.574 2°53.536 10.5 359 16 101520 81